Nikolaevsk, Alaska
Current Conditions -  °F | °C
As of 6:53 AM on Tuesday 21 Oct 2014 (Local Time) from PAHO Reporting Station
Overcast Overcast  
Wind Chill:   Ceiling: 6500
Heat Index:   Visibility: 10mi
Dew Point: -1°   Wind: 6mph
Humidity: 76%   Direction: 50°NE
Pressure: 29.25"   Gusts: NA
Location:  59.8183°N, 151.638°W
Report Text: PAHO 211453Z 05005KT 10SM OVC065 03/M01 A2925 RMK AO2 SLP906 T00281011 53003
Loading
Personal Weather Stations






























Interactive Weather Map
Tropical Storm Tracking
New forecast layout! Learn more

10-Day Weather Forecast

Advertisements
Track Severe Weather on mobile